aviador You're here:

CYYN Decoded Metar

SWIFT CURRENT in SK, CANADA
Report Time2017-11-19 21:00:00
UTC Time2017-11-19 21:50:05
Flight Rules vfr VFR
Wind220° at 16 Gusting to 21 kt
W.Decomp.*RWY 22: 15.6 kt HW 3.6 kt LCW
RWY 12: 0.8 kt HW 16.0 kt RCW
W.Rank220° ranks 9
Current wind is above 220° avg. (11.2)
Visibility9999 m
Phenomena:N/A
Clouds:N/A
Expected CloudBase > 2,800 ft AGL from Temp-Dew spread
CeilingNone
Temp03°C (ISA -7)
Dew Point-4°C (60% RH)
AAT-5.3°C
QNH999 hPa
Density Alt2,428 ft
Elevation2,684 ft
Report Wrong Elevation
Raw Report
CYYN 192100Z AUTO 22016G21KT 9SM CLR 03/M04 A2951 RMK SLP022=

Extra information for CYYN:More info

Metar Taf Metar & Taf Last 4 Metars F.Rules Stats Wind Profile Meteogram Temp Stats Airport Information Weather charts Add Link Nearby VenuesMetar ALERT Operation Metar Decoded Social comments